createdAt,value
2023-04-16T00:01:06.273Z,12.38
2023-04-16T00:03:33.671Z,13.38
2023-04-16T00:06:00.971Z,18.98
2023-04-16T00:08:27.766Z,19.80
2023-04-16T00:10:54.871Z,14.25
2023-04-16T00:13:22.552Z,13.00
2023-04-16T00:15:52.290Z,15.93
2023-04-16T00:18:21.097Z,15.20
2023-04-16T00:20:49.238Z,11.10
2023-04-16T00:23:16.912Z,15.90
2023-04-16T00:25:43.805Z,16.15
2023-04-16T00:28:11.196Z,14.50
2023-04-16T00:30:38.192Z,14.15
2023-04-16T00:33:05.383Z,15.48
2023-04-16T00:35:32.242Z,18.10
2023-04-16T00:37:59.273Z,18.33
2023-04-16T00:40:29.893Z,17.20
2023-04-16T00:42:56.889Z,13.18
2023-04-16T00:45:23.951Z,16.60
2023-04-16T00:47:51.108Z,12.30
2023-04-16T00:50:18.500Z,14.18
2023-04-16T00:52:50.140Z,14.93
2023-04-16T00:55:18.857Z,14.68
2023-04-16T00:57:46.119Z,14.73
2023-04-16T01:00:14.277Z,17.65
2023-04-16T01:02:41.831Z,20.70
2023-04-16T01:05:09.285Z,18.50
2023-04-16T01:07:36.166Z,20.75
2023-04-16T01:10:04.068Z,19.58
2023-04-16T01:12:31.166Z,19.05
2023-04-16T01:14:58.132Z,18.33
2023-04-16T01:17:24.997Z,15.60
2023-04-16T01:19:51.831Z,14.43
2023-04-16T01:22:18.897Z,16.85
2023-04-16T01:24:46.073Z,17.27
2023-04-16T01:27:12.933Z,23.58
2023-04-16T01:29:39.843Z,15.35
2023-04-16T01:32:07.235Z,22.42
2023-04-16T01:34:36.809Z,18.63
2023-04-16T01:37:05.162Z,22.52
2023-04-16T01:39:32.077Z,25.92
2023-04-16T01:41:58.892Z,14.35
2023-04-16T01:44:26.336Z,20.48
2023-04-16T01:46:53.500Z,17.50
2023-04-16T01:49:22.400Z,19.33
2023-04-16T01:51:49.523Z,17.40
2023-04-16T01:54:16.403Z,22.10
2023-04-16T01:56:43.347Z,20.55
2023-04-16T01:59:10.820Z,17.00
2023-04-16T02:01:42.100Z,20.73
2023-04-16T02:04:10.320Z,22.13
2023-04-16T02:06:37.960Z,22.58
2023-04-16T02:09:04.794Z,17.92
2023-04-16T02:11:32.282Z,23.73
2023-04-16T02:13:59.427Z,24.05
2023-04-16T02:16:26.410Z,21.85
2023-04-16T02:18:58.856Z,23.20
2023-04-16T02:21:28.456Z,29.05
2023-04-16T02:23:55.628Z,18.63
2023-04-16T02:26:27.167Z,26.90
2023-04-16T02:28:56.539Z,21.55
2023-04-16T02:31:28.696Z,21.92
2023-04-16T02:33:56.645Z,23.33
2023-04-16T02:36:26.643Z,21.40
2023-04-16T02:38:55.936Z,22.98
2023-04-16T02:41:22.859Z,20.35
2023-04-16T02:43:49.825Z,23.02
2023-04-16T02:46:16.802Z,29.92
2023-04-16T02:48:43.724Z,21.55
2023-04-16T02:51:10.976Z,24.33
2023-04-16T02:53:37.859Z,21.05
2023-04-16T02:56:05.070Z,19.42
2023-04-16T02:58:33.087Z,22.15
2023-04-16T03:00:59.885Z,25.25
2023-04-16T03:03:26.840Z,27.17
2023-04-16T03:05:53.713Z,24.05
2023-04-16T03:08:20.703Z,27.63
2023-04-16T03:10:47.654Z,23.30
2023-04-16T03:13:15.344Z,17.15
2023-04-16T03:15:49.805Z,29.00
2023-04-16T03:18:16.847Z,19.20
2023-04-16T03:20:43.817Z,23.67
2023-04-16T03:23:11.819Z,21.17
2023-04-16T03:25:40.485Z,20.42
2023-04-16T03:28:08.609Z,22.52
2023-04-16T03:30:35.865Z,25.05
2023-04-16T03:33:03.875Z,26.33
2023-04-16T03:35:31.225Z,25.27
2023-04-16T03:37:58.081Z,26.20
2023-04-16T03:40:24.982Z,24.63
2023-04-16T03:42:55.602Z,26.65
2023-04-16T03:45:22.566Z,25.65
2023-04-16T03:47:53.006Z,24.02
2023-04-16T03:50:22.807Z,24.25
2023-04-16T03:52:49.578Z,24.80
2023-04-16T03:55:17.511Z,24.50
2023-04-16T03:57:44.839Z,27.40
2023-04-16T04:00:14.271Z,26.20
2023-04-16T04:03:01.032Z,29.40
2023-04-16T04:05:28.070Z,29.75
2023-04-16T04:07:54.967Z,30.65
2023-04-16T04:10:21.854Z,52.35
2023-04-16T04:12:48.657Z,30.48
2023-04-16T04:15:15.812Z,35.45
2023-04-16T04:17:42.810Z,29.50
2023-04-16T04:20:10.672Z,29.80
2023-04-16T04:22:37.564Z,29.17
2023-04-16T04:25:04.782Z,33.45
2023-04-16T04:27:32.971Z,27.05
2023-04-16T04:29:59.893Z,35.97
2023-04-16T04:32:27.648Z,33.38
2023-04-16T04:34:54.533Z,32.22
2023-04-16T04:37:21.452Z,32.75
2023-04-16T04:39:48.406Z,35.08
2023-04-16T04:42:18.905Z,38.47
2023-04-16T04:44:46.583Z,33.17
2023-04-16T04:47:15.111Z,32.08
2023-04-16T04:49:42.013Z,37.05
2023-04-16T04:52:09.073Z,45.58
2023-04-16T04:54:36.026Z,38.08
2023-04-16T04:57:02.953Z,34.38
2023-04-16T04:59:30.718Z,38.70
2023-04-16T05:01:57.720Z,28.55
2023-04-16T05:04:24.649Z,37.25
2023-04-16T05:06:51.885Z,36.72
2023-04-16T05:09:18.700Z,39.60
2023-04-16T05:11:45.739Z,32.28
2023-04-16T05:14:12.669Z,30.50
2023-04-16T05:16:39.797Z,34.72
2023-04-16T05:19:07.162Z,32.10
2023-04-16T05:21:34.297Z,32.47
2023-04-16T05:24:01.086Z,35.40
2023-04-16T05:26:27.960Z,31.48
2023-04-16T05:28:54.879Z,31.45
2023-04-16T05:31:22.214Z,35.00
2023-04-16T05:33:49.119Z,29.98
2023-04-16T05:36:16.925Z,35.92
2023-04-16T05:38:43.837Z,33.40
2023-04-16T05:41:13.236Z,35.33
2023-04-16T05:43:40.362Z,36.67
2023-04-16T05:46:07.984Z,36.13
2023-04-16T05:48:35.175Z,37.05
2023-04-16T05:51:02.683Z,32.15
2023-04-16T05:53:29.442Z,41.47
2023-04-16T05:55:56.202Z,39.47
2023-04-16T05:58:24.943Z,34.88
2023-04-16T06:00:53.166Z,33.92
2023-04-16T06:03:20.235Z,33.08
2023-04-16T06:05:49.887Z,39.22
2023-04-16T06:08:16.924Z,32.83
2023-04-16T06:10:46.669Z,32.33
2023-04-16T06:13:13.922Z,41.25
2023-04-16T06:15:40.885Z,32.00
2023-04-16T06:18:07.818Z,38.20
2023-04-16T06:20:34.736Z,30.95
2023-04-16T06:23:02.814Z,29.35
2023-04-16T06:25:30.302Z,31.95
2023-04-16T06:27:57.701Z,32.45
2023-04-16T06:30:25.215Z,30.63
2023-04-16T06:32:55.411Z,28.50
2023-04-16T06:35:22.500Z,31.52
2023-04-16T06:37:49.652Z,35.15
2023-04-16T06:40:16.839Z,34.85
2023-04-16T06:42:45.565Z,33.60
2023-04-16T06:45:15.292Z,31.65
2023-04-16T06:47:42.729Z,31.77
2023-04-16T06:50:11.368Z,28.27
2023-04-16T06:58:02.248Z,31.90
2023-04-16T07:00:29.824Z,32.13
2023-04-16T07:02:58.711Z,33.15
2023-04-16T07:05:27.166Z,32.47
2023-04-16T07:07:57.636Z,32.15
2023-04-16T07:10:25.694Z,35.65
2023-04-16T07:12:53.009Z,31.33
2023-04-16T07:15:20.306Z,32.42
2023-04-16T07:17:47.269Z,33.42
2023-04-16T07:20:14.792Z,34.03
2023-04-16T07:22:41.845Z,30.00
2023-04-16T07:25:09.614Z,32.45
2023-04-16T07:27:36.489Z,31.45
2023-04-16T07:30:03.914Z,28.98
2023-04-16T07:32:31.076Z,38.63
2023-04-16T07:34:58.186Z,31.98
2023-04-16T07:37:25.369Z,34.83
2023-04-16T07:39:53.175Z,31.80
2023-04-16T07:42:21.070Z,30.42
2023-04-16T07:44:48.255Z,33.72
2023-04-16T07:47:15.569Z,30.52
2023-04-16T07:49:46.263Z,31.38
2023-04-16T07:52:14.029Z,32.03
2023-04-16T07:54:45.104Z,29.90
2023-04-16T07:57:16.329Z,33.78
2023-04-16T07:59:46.836Z,32.75
2023-04-16T08:02:26.925Z,31.88
2023-04-16T08:05:03.327Z,34.15
2023-04-16T08:07:32.250Z,35.30
2023-04-16T08:10:01.844Z,36.55
2023-04-16T08:12:33.346Z,30.65
2023-04-16T08:15:03.167Z,36.70
2023-04-16T08:17:32.898Z,26.73
2023-04-16T08:20:06.688Z,29.70
2023-04-16T08:22:40.183Z,29.73
2023-04-16T08:25:13.441Z,30.85
2023-04-16T08:27:40.796Z,25.17
2023-04-16T08:30:11.342Z,35.80
2023-04-16T08:32:49.420Z,28.73
2023-04-16T08:35:19.870Z,31.98
2023-04-16T08:37:46.968Z,29.08
2023-04-16T08:40:18.806Z,30.50
2023-04-16T08:43:00.545Z,27.88
2023-04-16T08:45:29.006Z,30.27
2023-04-16T08:48:05.818Z,28.90
2023-04-16T08:50:37.764Z,26.67
2023-04-16T08:53:09.823Z,29.42
2023-04-16T08:56:00.293Z,30.48
2023-04-16T08:58:36.919Z,23.23
2023-04-16T09:01:04.688Z,26.30
2023-04-16T09:03:36.199Z,24.02
2023-04-16T09:06:07.335Z,25.85
2023-04-16T09:08:36.171Z,27.25
2023-04-16T09:11:04.694Z,29.45
2023-04-16T09:13:32.327Z,28.25
2023-04-16T09:16:00.970Z,29.50
2023-04-16T09:18:28.387Z,27.45
2023-04-16T09:20:57.080Z,23.23
2023-04-16T09:23:24.994Z,24.73
2023-04-16T09:25:51.833Z,21.90
2023-04-16T09:28:46.901Z,26.50
2023-04-16T09:31:18.345Z,20.02
2023-04-16T09:34:03.595Z,23.80
2023-04-16T09:36:32.626Z,27.83
2023-04-16T09:39:02.017Z,27.65
2023-04-16T09:41:35.855Z,24.95
2023-04-16T09:44:05.078Z,27.15
2023-04-16T09:46:35.647Z,25.98
2023-04-16T09:49:18.811Z,26.50
2023-04-16T09:51:49.622Z,22.60
2023-04-16T09:54:16.620Z,25.77
2023-04-16T09:56:46.263Z,26.33
2023-04-16T09:59:40.119Z,26.63
2023-04-16T10:02:16.092Z,21.73
2023-04-16T10:04:54.075Z,22.77
2023-04-16T10:07:22.169Z,19.60
2023-04-16T10:09:50.093Z,17.58
2023-04-16T10:12:16.989Z,20.52
2023-04-16T10:14:44.087Z,23.45
2023-04-16T10:17:11.456Z,20.55
2023-04-16T10:19:39.339Z,21.05
2023-04-16T10:22:06.200Z,23.83
2023-04-16T10:24:34.864Z,23.45
2023-04-16T10:27:02.514Z,22.77
2023-04-16T10:29:31.678Z,26.95
2023-04-16T10:31:59.727Z,26.00
2023-04-16T10:34:28.817Z,23.13
2023-04-16T10:36:56.181Z,21.83
2023-04-16T10:39:27.343Z,25.08
2023-04-16T10:42:11.733Z,20.05
2023-04-16T10:44:42.028Z,24.55
2023-04-16T10:47:13.259Z,23.60
2023-04-16T10:49:41.570Z,20.40
2023-04-16T10:52:19.626Z,21.98
2023-04-16T10:54:50.234Z,24.15
2023-04-16T10:57:19.987Z,21.40
2023-04-16T10:59:49.309Z,21.27
2023-04-16T11:02:19.229Z,21.10
2023-04-16T11:04:50.042Z,19.38
2023-04-16T11:07:20.920Z,18.88
2023-04-16T11:10:04.236Z,17.63
2023-04-16T11:12:39.057Z,19.83
2023-04-16T11:15:12.288Z,20.35
2023-04-16T11:17:39.408Z,17.63
2023-04-16T11:20:18.826Z,15.80
2023-04-16T11:22:57.433Z,17.05
2023-04-16T11:25:30.132Z,15.90
2023-04-16T11:28:02.249Z,17.90
2023-04-16T11:30:38.073Z,18.17
2023-04-16T11:33:11.238Z,20.52
2023-04-16T11:35:39.771Z,20.42
2023-04-16T11:38:07.310Z,15.30
2023-04-16T11:40:35.883Z,14.73
2023-04-16T11:43:13.060Z,17.38
2023-04-16T11:45:53.429Z,16.50
2023-04-16T11:48:21.244Z,15.43
2023-04-16T11:50:58.935Z,16.23
2023-04-16T11:53:30.981Z,14.98
2023-04-16T11:55:58.008Z,16.95
2023-04-16T11:58:25.180Z,18.67
2023-04-16T12:00:56.810Z,15.00
2023-04-16T12:03:46.990Z,16.58
2023-04-16T12:06:14.251Z,17.17
2023-04-16T12:08:41.141Z,18.83
2023-04-16T12:11:10.552Z,14.95
2023-04-16T12:13:39.840Z,17.17
2023-04-16T12:16:19.867Z,18.63
2023-04-16T12:19:06.399Z,17.65
2023-04-16T12:21:46.313Z,18.27
2023-04-16T12:24:16.701Z,19.92
2023-04-16T12:26:46.935Z,17.50
2023-04-16T12:29:25.081Z,21.00
2023-04-16T12:31:53.732Z,16.05
2023-04-16T12:34:22.040Z,18.30
2023-04-16T12:37:12.334Z,21.35
2023-04-16T12:39:39.415Z,18.98
2023-04-16T12:42:09.755Z,21.27
2023-04-16T12:44:39.118Z,16.80
2023-04-16T12:47:06.314Z,18.80
2023-04-16T12:49:33.443Z,19.75
2023-04-16T12:52:02.346Z,20.27
2023-04-16T12:54:31.204Z,17.80
2023-04-16T12:56:58.241Z,19.42
2023-04-16T12:59:25.329Z,17.85
2023-04-16T13:01:52.246Z,20.17
2023-04-16T13:04:22.045Z,17.23
2023-04-16T13:06:50.547Z,16.70
2023-04-16T13:09:18.281Z,20.90
2023-04-16T13:11:45.509Z,19.90
2023-04-16T13:14:12.229Z,17.50
2023-04-16T13:16:38.964Z,18.15
2023-04-16T13:19:05.743Z,17.95
2023-04-16T13:21:33.728Z,18.33
2023-04-16T13:24:00.582Z,19.88
2023-04-16T13:26:27.428Z,18.70
2023-04-16T13:28:54.569Z,22.73
2023-04-16T13:31:22.249Z,18.70
2023-04-16T13:33:50.546Z,18.60
2023-04-16T13:36:17.394Z,15.80
2023-04-16T13:38:44.339Z,17.92
2023-04-16T13:41:11.069Z,15.98
2023-04-16T13:43:37.845Z,18.23
2023-04-16T13:46:04.780Z,19.55
2023-04-16T13:48:35.027Z,20.15
2023-04-16T13:51:03.526Z,17.33
2023-04-16T13:53:30.702Z,17.20
2023-04-16T13:55:57.727Z,18.92
2023-04-16T13:58:24.903Z,19.27
2023-04-16T14:00:52.175Z,16.10
2023-04-16T14:03:20.731Z,20.13
2023-04-16T14:05:47.711Z,18.33
2023-04-16T14:08:16.325Z,17.52
2023-04-16T14:10:43.345Z,20.45
2023-04-16T14:13:13.646Z,15.15
2023-04-16T14:15:40.609Z,15.35
2023-04-16T14:18:07.682Z,17.98
2023-04-16T14:20:35.102Z,16.08
2023-04-16T14:23:02.066Z,16.77
2023-04-16T14:25:29.318Z,17.10
2023-04-16T14:27:56.207Z,16.80
2023-04-16T14:30:26.352Z,17.58
2023-04-16T14:32:53.668Z,14.18
2023-04-16T14:35:20.846Z,15.45
2023-04-16T14:37:47.843Z,15.90
2023-04-16T14:40:15.125Z,13.88
2023-04-16T14:42:42.148Z,16.00
2023-04-16T14:45:09.684Z,15.35
2023-04-16T14:47:38.058Z,19.40
2023-04-16T14:50:06.482Z,21.85
2023-04-16T14:52:33.488Z,18.52
2023-04-16T14:55:00.427Z,23.77
2023-04-16T14:57:27.411Z,18.98
2023-04-16T14:59:54.252Z,18.83
2023-04-16T15:02:22.484Z,19.13
2023-04-16T15:04:49.645Z,13.63
2023-04-16T15:07:17.024Z,14.65
2023-04-16T15:09:44.267Z,15.85
2023-04-16T15:12:11.035Z,12.60
2023-04-16T15:14:37.810Z,15.18
2023-04-16T15:17:04.746Z,13.73
2023-04-16T15:19:31.700Z,14.18
2023-04-16T15:21:59.311Z,13.38
2023-04-16T15:24:26.398Z,15.05
2023-04-16T15:26:53.346Z,13.93
2023-04-16T15:29:20.219Z,15.18
2023-04-16T15:31:48.053Z,16.17
2023-04-16T15:34:14.921Z,17.23
2023-04-16T15:36:42.297Z,17.23
2023-04-16T15:42:20.225Z,16.95
2023-04-16T15:44:47.096Z,16.25
2023-04-16T15:47:14.018Z,15.10
2023-04-16T15:49:41.996Z,16.58
2023-04-16T15:52:14.642Z,27.92
2023-04-16T15:54:56.053Z,26.90
2023-04-16T15:57:40.859Z,27.10
2023-04-16T16:00:16.280Z,27.60
2023-04-16T16:11:16.999Z,23.83
2023-04-16T16:13:43.847Z,23.27
2023-04-16T16:16:11.680Z,25.73
2023-04-16T16:18:39.660Z,21.83
2023-04-16T16:21:07.667Z,19.98
2023-04-16T16:23:34.940Z,26.48
2023-04-16T16:26:02.290Z,22.42
2023-04-16T16:28:29.253Z,28.30
2023-04-16T16:30:58.741Z,30.33
2023-04-16T16:33:27.987Z,25.35
2023-04-16T16:35:55.305Z,25.70
2023-04-16T16:38:24.718Z,28.13
2023-04-16T16:40:52.140Z,25.25
2023-04-16T16:43:19.561Z,31.02
2023-04-16T16:45:47.247Z,34.30
2023-04-16T16:53:43.400Z,26.65
2023-04-16T16:56:10.967Z,28.98
2023-04-16T16:58:41.780Z,35.03
2023-04-16T17:01:08.960Z,31.52
2023-04-16T17:03:49.060Z,34.30
2023-04-16T17:06:16.240Z,28.60
2023-04-16T17:08:47.673Z,28.95
2023-04-16T17:11:17.668Z,36.30
2023-04-16T17:13:44.711Z,30.63
2023-04-16T17:16:13.227Z,32.08
2023-04-16T17:18:40.810Z,33.45
2023-04-16T17:21:07.687Z,31.38
2023-04-16T17:23:34.544Z,37.28
2023-04-16T17:26:09.471Z,31.52
2023-04-16T17:28:36.409Z,28.45
2023-04-16T17:33:45.290Z,29.67
2023-04-16T17:36:12.806Z,29.48
2023-04-16T17:38:40.096Z,28.52
2023-04-16T17:41:07.267Z,33.20
2023-04-16T17:43:34.763Z,31.88
2023-04-16T17:46:01.833Z,30.17
2023-04-16T17:48:28.887Z,26.95
2023-04-16T17:50:56.002Z,29.38
2023-04-16T17:53:23.092Z,27.10
2023-04-16T17:55:56.036Z,26.38
2023-04-16T17:58:27.516Z,26.98
2023-04-16T18:00:54.577Z,27.02
2023-04-16T18:03:22.238Z,24.10
2023-04-16T18:05:49.561Z,24.15
2023-04-16T18:08:17.059Z,24.13
2023-04-16T18:10:46.580Z,25.67
2023-04-16T18:13:14.502Z,28.48
2023-04-16T18:16:08.611Z,20.88
2023-04-16T18:18:38.539Z,24.38
2023-04-16T18:21:07.402Z,26.48
2023-04-16T18:23:37.112Z,24.63
2023-04-16T18:26:11.053Z,24.55
2023-04-16T18:28:38.738Z,23.08
2023-04-16T18:31:07.837Z,24.73
2023-04-16T18:34:02.350Z,27.35
2023-04-16T18:36:29.331Z,27.20
2023-04-16T18:39:02.166Z,24.05
2023-04-16T18:41:31.194Z,26.67
2023-04-16T18:43:58.174Z,22.60
2023-04-16T18:46:25.411Z,28.33
2023-04-16T18:48:52.448Z,26.63
2023-04-16T18:51:19.589Z,21.25
2023-04-16T18:53:46.448Z,26.17
2023-04-16T18:56:13.515Z,22.92
2023-04-16T18:58:40.398Z,21.75
2023-04-16T19:01:11.294Z,26.15
2023-04-16T19:03:38.735Z,28.35
2023-04-16T19:06:06.273Z,20.55
2023-04-16T19:08:33.484Z,23.52
2023-04-16T19:11:03.498Z,28.45
2023-04-16T19:13:32.278Z,20.52
2023-04-16T19:16:01.048Z,21.83
2023-04-16T19:18:56.323Z,25.08
2023-04-16T19:21:23.298Z,24.50
2023-04-16T19:23:50.724Z,26.65
2023-04-16T19:26:17.954Z,21.48
2023-04-16T19:28:45.715Z,20.80
2023-04-16T19:31:12.736Z,19.00
2023-04-16T19:33:41.035Z,21.38
2023-04-16T19:36:08.111Z,19.50
2023-04-16T19:38:35.096Z,18.58
2023-04-16T19:41:02.481Z,22.65
2023-04-16T19:43:32.011Z,22.80
2023-04-16T19:45:59.374Z,25.65
2023-04-16T19:48:26.522Z,19.45
2023-04-16T19:50:53.509Z,19.02
2023-04-16T19:53:21.345Z,17.27
2023-04-16T19:55:48.304Z,22.48
2023-04-16T19:58:15.317Z,22.50
2023-04-16T20:00:42.476Z,20.90
2023-04-16T20:03:09.782Z,22.15
2023-04-16T20:05:50.257Z,25.25
2023-04-16T20:08:17.258Z,24.15
2023-04-16T20:10:44.267Z,22.90
2023-04-16T20:13:12.213Z,21.58
2023-04-16T20:15:41.924Z,25.83
2023-04-16T20:18:08.942Z,30.13
2023-04-16T20:20:40.122Z,26.67
2023-04-16T20:23:11.477Z,26.10
2023-04-16T20:25:46.336Z,21.38
2023-04-16T20:28:16.099Z,23.00
2023-04-16T20:30:42.974Z,22.52
2023-04-16T20:33:09.899Z,24.33
2023-04-16T20:35:36.864Z,24.25
2023-04-16T20:38:04.236Z,23.42
2023-04-16T20:40:31.518Z,25.80
2023-04-16T20:43:02.820Z,23.45
2023-04-16T20:45:37.954Z,25.27
2023-04-16T20:48:05.558Z,25.25
2023-04-16T20:50:50.072Z,27.65
2023-04-16T20:53:29.849Z,30.33
2023-04-16T20:55:57.049Z,25.15
2023-04-16T20:58:24.489Z,31.92
2023-04-16T21:00:52.230Z,23.30
2023-04-16T21:03:21.603Z,28.90
2023-04-16T21:05:55.336Z,24.25
2023-04-16T21:08:25.507Z,32.47
2023-04-16T21:10:52.479Z,29.50
2023-04-16T21:13:26.756Z,28.08
2023-04-16T21:15:53.745Z,27.65
2023-04-16T21:18:20.711Z,27.38
2023-04-16T21:20:47.573Z,34.75
2023-04-16T21:23:14.585Z,26.92
2023-04-16T21:25:41.507Z,30.33
2023-04-16T21:28:08.381Z,31.17
2023-04-16T21:30:35.416Z,26.38
2023-04-16T21:33:03.182Z,24.92
2023-04-16T21:35:37.759Z,34.72
2023-04-16T21:38:06.998Z,28.13
2023-04-16T21:40:35.135Z,29.60
2023-04-16T21:43:02.323Z,31.00
2023-04-16T21:45:30.671Z,32.65
2023-04-16T21:47:57.696Z,32.53
2023-04-16T21:50:24.524Z,32.70
2023-04-16T21:52:52.415Z,29.52
2023-04-16T21:55:19.263Z,31.27
2023-04-16T21:57:46.107Z,37.83
2023-04-16T22:00:13.718Z,31.23
2023-04-16T22:02:42.340Z,31.65
2023-04-16T22:05:11.271Z,31.35
2023-04-16T22:07:38.380Z,36.53
2023-04-16T22:10:06.703Z,33.85
2023-04-16T22:12:33.590Z,35.08
2023-04-16T22:15:02.727Z,33.05
2023-04-16T22:17:30.532Z,34.60
2023-04-16T22:20:00.321Z,30.38
2023-04-16T22:22:27.290Z,33.40
2023-04-16T22:24:54.091Z,31.15
2023-04-16T22:27:21.280Z,35.53
2023-04-16T22:29:48.072Z,34.28
2023-04-16T22:32:14.994Z,37.15
2023-04-16T22:34:41.939Z,34.50
2023-04-16T22:37:08.874Z,34.63
2023-04-16T22:39:35.657Z,36.70
2023-04-16T22:42:02.544Z,36.78
2023-04-16T22:44:29.410Z,31.08
2023-04-16T22:46:56.264Z,33.72
2023-04-16T22:49:23.123Z,36.08
2023-04-16T22:51:50.078Z,37.85
2023-04-16T22:54:16.930Z,31.13
2023-04-16T22:56:43.837Z,29.13
2023-04-16T22:59:10.947Z,32.00
2023-04-16T23:01:38.489Z,35.05
2023-04-16T23:04:05.834Z,35.55
2023-04-16T23:06:32.884Z,31.17
2023-04-16T23:09:00.163Z,36.33
2023-04-16T23:11:26.985Z,32.97
2023-04-16T23:13:53.892Z,35.17
2023-04-16T23:16:20.819Z,35.22
2023-04-16T23:18:47.772Z,32.63
2023-04-16T23:21:14.512Z,31.13
2023-04-16T23:23:41.376Z,33.72
2023-04-16T23:26:08.249Z,36.17
2023-04-16T23:28:35.352Z,33.30
2023-04-16T23:31:02.997Z,37.40
2023-04-16T23:33:30.708Z,31.60
2023-04-16T23:35:57.522Z,32.28
2023-04-16T23:38:24.528Z,37.78
2023-04-16T23:40:51.447Z,38.75
2023-04-16T23:43:18.276Z,33.00
2023-04-16T23:45:45.241Z,33.97
2023-04-16T23:48:12.120Z,32.42
2023-04-16T23:50:38.943Z,34.40
2023-04-16T23:53:06.058Z,32.25
2023-04-16T23:55:33.013Z,33.05
2023-04-16T23:58:00.150Z,31.23
